Adjuster:

Genres

Documentary

1982-Present
NOTE: Documentary as sub-genre of Non-Fiction.
Large format (ex. Everest), concert (music, ex. Woodstock, and comedy, ex. Raw) , compilation (ex. That's Entertainment) and reality TV movies (ex. Jackass) omitted. Hybrids (ex. Never Say Never) are included.

Rows: #1-100, #101-200, #201-300, #301-400, #401-500, #501-600, #601-700, #701-800, #801-900, #901-1000, #1001-1100, #1101-1200, #1201-1300, #1301-1400, #1401-1496
RowRankTitle (click to view)StudioLifetime Gross / TheatersOpening / TheatersDate
1 688 For No Good Reason SPC $67,421 21 $4,516 2 4/25/14
2 817 Next Goal Wins KE $43,089 10 $2,568 5 4/25/14
3 1053 Who is Dayani Cristal? KL $18,190 2 $5,712 2 4/25/14
4 1232 Gringo Trails Icar. $8,349 2 $158 1 4/19/14
5 14 Bears BV $17,780,194 1,790 $4,776,267 1,720 4/18/14
6 918 Manakamana CGld $30,029 4 $3,635 1 4/18/14
7 1165 The Final Member Drft. $11,428 10 $2,064 7 4/18/14
8 1320 Half the Road FRun $4,783 2 $1,613 2 4/18/14
9 481 Dancing in Jaffa IFC $151,098 23 $10,564 2 4/11/14
10 339 The Unknown Known RTWC $276,497 80 $64,315 18 4/4/14
11 371 The Galapagos Affair: Satan Came to Eden Zeit. $247,159 15 $5,185 1 4/4/14
12 629 Watermark EOne $84,464 16 $7,724 2 4/4/14
13 1305 Flex is Kings BBFR $5,418 1 $3,152 1 4/4/14
14 118 Finding Vivian Maier IFC $1,514,782 97 $63,600 3 3/28/14
15 497 Mistaken for Strangers Abr. $138,991 9 $87,743 9 3/28/14
16 662 Veil of Tears WF $72,078 8 $44,358 8 3/28/14
17 1284 Jews of Egypt Artma $6,505 2 $2,179 1 3/28/14
18 212 Jodorowsky's Dune SPC $647,280 61 $36,018 3 3/21/14
19 439 Anita Gold. $176,979 12 $44,114 7 3/21/14
20 759 The Missing Picture Strand $52,164 9 $10,148 5 3/19/14
21 731 Big Men Abr. $56,286 3 $7,539 1 3/14/14
22 839 Teenage Osci. $40,169 4 $8,000 1 3/14/14
23 585 Beyond Sight: The Derek Rabelo Story WOWF $101,074 2 $26,840 2 3/7/14
24 1307 The Only Real Game TORG $5,384 1 $1,130 1 3/7/14
25 175 Particle Fever Abr. $869,838 27 $53,901 4 3/5/14
26 1375 Fatal Assistance Velv. $3,000 1 $3,000 1 2/28/14
27 300 Elaine Stritch: Shoot Me IFC $327,452 41 $27,853 2 2/21/14
28 1415 Souldier PDF $1,500 2 $900 2 2/21/14
29 491 Kids For Cash Pala. $143,178 12 $36,639 4 2/7/14
30 835 The Last Of The Unjust Cohen $40,563 8 $14,328 8 2/7/14
31 444 Afternoon of a Faun KL $172,450 11 $15,292 2 2/5/14
32 107 Tim's Vermeer SPC $1,671,377 129 $49,777 4 1/31/14
33 632 12 O'Clock Boys Osci. $82,614 21 $44,108 21 1/31/14
34 1036 Peter Brook: The Tightrope FRun $19,365 2 $6,768 1 1/31/14
35 628 Visitors (2014) Cdgm. $84,577 13 $9,094 1 1/24/14
36 1282 Aatsinki: The Story of Arctic Cowboys Argo. $6,601 2 $2,842 1 1/24/14
37 1300 Papirosen FM $5,658 1 n/a - 1/24/14
38 1382 Mercedes Sosa: The Voice of Latin America FRun $2,648 1 $1,415 1 1/24/14
39 782 American Mustang Vita. $48,700 3 $7,906 1 1/17/14
40 816 If You Build It Long Shot $43,393 5 $4,949 1 1/10/14
41 1009 The Great Flood Icar. $20,694 1 $3,596 1 1/8/14
42 1140 In No Great Hurry: 13 Lessons in Life with Saul Leiter mTuck $12,133 4 $6,100 1 1/3/14
43 35 Believe ORF $6,206,566 1,037 $2,007,567 1,037 12/25/13
44 682 Maidentrip FRun $68,243 9 $1,622 1 12/20/13
45 1187 Liv & Ingmar Jan. $10,347 2 $5,451 2 12/13/13
46 1313 Nuclear Nation FRun $4,960 1 $2,268 1 12/11/13
47 526 The Punk Singer IFC $122,742 24 $24,729 3 11/29/13
48 926 Cousin Jules CGld $29,337 3 $5,135 1 11/29/13
49 1103 The Unbelievers CM $14,400 1 $5,925 1 11/29/13
50 1335 The End of Time FRun $4,375 1 $1,468 1 11/29/13
51 488 Narco Cultura Cdgm. $145,088 46 $6,093 1 11/22/13
52 500 Is the Man Who Is Tall Happy? IFC $137,042 15 $31,800 3 11/22/13
53 565 Bettie Page Reveals All MBox $108,118 21 $4,846 1 11/22/13
54 1342 Weekend of a Champion SD $4,100 2 $4,100 2 11/22/13
55 968 Dear Mr. Watterson SD $23,899 9 $6,199 5 11/15/13
56 282 The Armstrong Lie SPC $383,294 77 $28,992 5 11/8/13
57 900 At Berkeley Zipp. $31,736 6 $5,069 2 11/8/13
58 1007 The Ghosts In Our Machine GMI $20,709 2 $8,756 1 11/8/13
59 1298 People of a Feather FRun $5,677 1 $2,413 1 11/8/13
60 683 The Pervert's Guide to Ideology Zeit. $67,966 4 $9,165 1 11/1/13
61 720 Sweet Dreams (2013) ICir $59,403 7 n/a - 11/1/13
62 889 Running From Crazy Vita. $33,300 5 $6,822 1 11/1/13
63 911 These Birds Walk Osci. $30,408 2 $5,454 1 11/1/13
64 1054 Casting By SD $18,164 2 $5,649 2 11/1/13
65 521 The Square (2013) Nou $124,244 9 $16,359 1 10/25/13
66 548 Spinning Plates TFA $112,449 6 $20,717 3 10/25/13
67 1177 Caucus BFOA $10,645 2 n/a - 10/25/13
68 487 American Promise RFG $146,702 8 $18,300 2 10/18/13
69 1197 Birth of the Living Dead FRun $9,802 10 $1,239 6 10/18/13
70 1274 The Human Scale KS $6,878 3 n/a - 10/18/13
71 637 I Am Divine TFC $81,497 10 n/a 1 10/11/13
72 766 God Loves Uganda Vari. $51,229 5 $7,300 1 10/11/13
73 938 Broadway Idiot FB $27,595 6 $5,514 1 10/11/13
74 1079 Design is One FRun $16,386 1 $4,236 1 10/11/13
75 321 Linsanity KE $302,645 16 $99,462 9 10/4/13
76 375 The Summit IFC $243,550 70 $20,904 8 10/4/13
77 891 Dislecksia: The Movie A23 $33,066 1 $2,213 1 10/4/13
78 1226 The Institute Argo. $8,445 4 $3,017 2 10/4/13
79 - Running Wild: The Life of Dayton O. Hyde Scre. n/a - n/a - 10/4/13
80 698 Let the Fire Burn Zeit. $64,489 9 $5,226 1 10/2/13
81 142 Inequality for All RTWC $1,205,273 103 $140,888 28 9/27/13
82 205 Muscle Shoals Magn. $696,241 56 $13,901 1 9/27/13
83 1189 Shepard and Dark MBox $10,278 3 $1,226 1 9/25/13
84 179 Generation Iron TVC $849,521 84 $245,000 53 9/20/13
85 661 After Tiller Osci. $72,125 6 $15,500 2 9/20/13
86 842 The Short Game Gold. $39,819 20 $28,434 17 9/20/13
87 1389 Men at Lunch FRun $2,483 1 $1,530 1 9/20/13
88 26 Jerusalem NGE $8,020,721 33 n/a - 9/13/13
89 774 Le Joli Mai Icar. $49,647 3 $10,662 3 9/13/13
90 786 GMO OMG SD $47,558 9 $15,100 1 9/13/13
91 851 Herb and Dorothy 50x50 FLM $38,933 8 $6,157 1 9/13/13
92 966 Harry Dean Stanton: Partly Fiction AF $23,959 4 $6,330 2 9/13/13
93 1193 The Informant MBox $10,068 4 $2,947 2 9/13/13
94 - Sample This GD n/a 15 n/a 15 9/13/13
95 783 Mademoiselle C Cohen $48,668 7 $14,284 6 9/11/13
96 219 Walking the Camino: Six Ways to Santiago FEF $612,717 11 n/a - 9/6/13
97 230 Salinger Wein. $583,633 138 $86,956 4 9/6/13
98 498 Good Ol' Freda Magn. $138,811 17 $6,798 1 9/6/13
99 615 Money for Nothing: Inside the Federal Reserve LibSt. $88,045 5 n/a - 9/6/13
100 931 Fire in the Blood ICir $28,994 4 $4,856 1 9/6/13
TOTAL (All Movies):$1,267,202,749----
AVERAGE (All Movies):$876,95750$137,29529-
TOTAL
(Wide Releases Only):
$670,675,025----
AVERAGE
(Wide Releases Only):
$26,827,0011,582$9,028,1251,648-
Rows: #1-100, #101-200, #201-300, #301-400, #401-500, #501-600, #601-700, #701-800, #801-900, #901-1000, #1001-1100, #1101-1200, #1201-1300, #1301-1400, #1401-1496


If there are any movies that you think should be on this list, e-mail us at mail@boxofficemojo.com.




UPCOMING RELEASES
Title (click to view)StudioRelease Date
Three of Hearts Think 10/19/05
The Sunshine Makers FR 1/20/17
I am Not Your Negro Magn. 2/3/17
Kedi Osci. 2/10/17
Contemporary Color Osci. 3/1/17
My Scientology Movie Magn. 3/3/17
Jeremiah Tower Orch. 4/14/17
Born in China BV 4/21/17
Aida's Secrets MBox May 2017
Compared to What? The Improbable Journey of Barney Frank PWP TBD